Terminal Aerodrome Forecast
Issued by NWS Portland, OR

Home | Current Version | Previous Version | Text Only | Print | Product List | Glossary On
Versions: 1 2 3 4 5 6 7 8 9 10 11 12 13 14 15 16 17 18 19 20 21 22 23 24 25 26 27 28 29 30
000
FTUS46 KPQR 291743
TAFAST
TAF
KAST 291743Z 2918/3018 29011KT P6SM -SHRA SCT025 OVC045
      TEMPO 2918/2922 BKN025
     FM292200 32016G22KT P6SM VCSH SCT025 BKN045
     FM300200 32012KT P6SM SCT040
     FM300800 29006KT P6SM BKN015=

USA.gov is the U.S. government's official web portal to all federal, state and local government web resources and services.